Nyk Deneb — 3EOF8 — position and weather

sailwx.info

Track history (hours):
 
Tides and Currents Weather Stations Pressure Air Temp Water Temp Dewpoint Dewpoint Depression Visibility Wind Speed Wind Dir Waves Ship Positions

Nyk Deneb

Last reported at 2017-May-30 01:27 UTC. Time now 2017-May-30 01:33 UTC.
Position N 34°17' W 120°21'.

Length 294 m; draft 10 m.

Type: Ship (hazmat cat B). MMSI: 355717000.

Date/timePositionNaut miles runAvg speedWind from/ knotsBaromVisibWave heightAir tempDewpointWater temp
2017-May-30 01:27N 34°17' W 120°21'511.2
2017-May-30 00:59N 34°18' W 120°27'611.5
2017-May-30 00:29N 34°20' W 120°33'511.2
2017-May-30 00:00N 34°22' W 120°40'611.6
2017-May-29 23:30N 34°23' W 120°46'611.2
2017-May-29 23:01N 34°24' W 120°53'510.5
2017-May-29 22:30N 34°26' W 120°59'611.2
2017-May-29 22:00N 34°31' W 121°03'611.4
2017-May-29 21:30N 34°35' W 121°07'5 9.1
2017-May-29 21:00N 34°39' W 121°10'1 1.5
2017-May-29 20:30N 34°40' W 121°10'1 1.5
2017-May-29 20:00N 34°41' W 121°10'1 1.5
2017-May-29 19:31N 34°41' W 121°10'1 1.7
2017-May-29 19:00N 34°42' W 121°11'1 1.7
2017-May-29 18:30N 34°43' W 121°11'1 1.8
2017-May-29 18:00N 34°44' W 121°11'1 2.6
2017-May-29 17:30N 34°45' W 121°10'612.3
2017-May-29 17:00N 34°51' W 121°14'713.6
2017-May-29 16:30N 34°56' W 121°18'713.6
2017-May-29 16:00N 35°02' W 121°22'713.4
2017-May-29 15:30N 35°08' W 121°26'713.4
2017-May-29 15:00N 35°14' W 121°30'713.2
2017-May-29 14:30N 35°20' W 121°33'1413.6
2017-May-29 13:30N 35°32' W 121°41'713.4
2017-May-29 13:00N 35°38' W 121°45'713.8
2017-May-29 12:31N 35°44' W 121°50'713.8
2017-May-29 12:00N 35°50' W 121°54'713.2
2017-May-29 11:30N 35°56' W 121°57'713.3
2017-May-29 11:00N 36°02' W 122°01'713.2
2017-May-29 10:30N 36°07' W 122°05'612.8
2017-May-29 10:00N 36°13' W 122°09'612.6
2017-May-29 09:30N 36°19' W 122°13'612.7
2017-May-29 09:00N 36°24' W 122°17'612.6
2017-May-29 08:30N 36°30' W 122°20'612.0
2017-May-29 08:00N 36°35' W 122°24'612.3
2017-May-29 07:30N 36°40' W 122°28'612.6
2017-May-29 07:00N 36°46' W 122°31'713.0
2017-May-29 06:29N 36°52' W 122°35'613.0
2017-May-29 06:00N 36°57' W 122°39'612.4
2017-May-29 05:30N 37°03' W 122°42'612.4
2017-May-29 05:00N 37°09' W 122°44'713.0
2017-May-29 04:30N 37°15' W 122°44'713.1
2017-May-29 04:00N 37°22' W 122°44'713.2
2017-May-29 03:30N 37°29' W 122°43'713.4
2017-May-29 03:00N 37°35' W 122°43'612.8
2017-May-29 02:30N 37°42' W 122°42'611.1
2017-May-29 02:00N 37°46' W 122°37'918.6
2017-May-29 01:30N 37°50' W 122°27'612.0
2017-May-29 01:00N 37°48' W 122°20'1 1.9
2017-May-29 00:30N 37°48' W 122°19'0 0.0
2017-May-29 00:00N 37°48' W 122°19'0 0.0
2017-May-28 23:30N 37°48' W 122°19'0 0.0
2017-May-28 23:00N 37°48' W 122°19'0 0.0
2017-May-28 22:30N 37°48' W 122°19'0 0.0
2017-May-28 22:00N 37°48' W 122°19'0 0.1
2017-May-28 21:30N 37°48' W 122°19'0 0.1
2017-May-28 21:00N 37°48' W 122°19'0 0.1
2017-May-28 20:30N 37°48' W 122°19'0 0.0
2017-May-28 20:00N 37°48' W 122°19'0 0.0
2017-May-28 19:30N 37°48' W 122°19'0 0.0
2017-May-28 19:00N 37°48' W 122°19'0 0.0
2017-May-28 18:30N 37°48' W 122°19'0 0.1
2017-May-28 18:00N 37°48' W 122°19'0 0.0
2017-May-28 17:30N 37°48' W 122°19'0 0.0
2017-May-28 17:00N 37°48' W 122°19'0 0.0
2017-May-28 16:30N 37°48' W 122°19'0 0.0
2017-May-28 16:00N 37°48' W 122°19'0 0.0
2017-May-28 15:30N 37°48' W 122°19'0 0.0
2017-May-28 15:00N 37°48' W 122°19'0 0.0
2017-May-28 14:00N 37°48' W 122°19'0 0.0
2017-May-28 13:30N 37°48' W 122°19'0 0.0
2017-May-28 13:00N 37°48' W 122°19'0 0.0
2017-May-28 12:30N 37°48' W 122°19'0 0.0
2017-May-28 12:00N 37°48' W 122°19'0 0.0
2017-May-28 11:30N 37°48' W 122°19'0 0.0
2017-May-28 11:00N 37°48' W 122°19'0 0.0
2017-May-28 10:30N 37°48' W 122°19'0 0.0
2017-May-28 10:00N 37°48' W 122°19'0 0.0
2017-May-28 09:30N 37°48' W 122°19'0 0.0
2017-May-28 09:00N 37°48' W 122°19'0 0.0
2017-May-28 08:30N 37°48' W 122°19'0 0.0
2017-May-28 08:00N 37°48' W 122°19'0 0.0
2017-May-28 07:30N 37°48' W 122°19'0 0.0
2017-May-28 07:00N 37°48' W 122°19'0 0.0
2017-May-28 06:30N 37°48' W 122°19'0 0.0
2017-May-28 06:00N 37°48' W 122°19'0 0.0
2017-May-28 05:30N 37°48' W 122°19'0 0.0
2017-May-28 05:00N 37°48' W 122°19'0 0.0
2017-May-28 04:30N 37°48' W 122°19'0 0.0
2017-May-28 04:00N 37°48' W 122°19'0 0.0
2017-May-28 03:30N 37°48' W 122°19'0 0.0
2017-May-28 03:00N 37°48' W 122°19'0 0.0
2017-May-28 02:30N 37°48' W 122°19'0 0.0
2017-May-28 02:00N 37°48' W 122°19'1 1.2
2017-May-28 01:30N 37°48' W 122°18'0 0.3
2017-May-28 01:00N 37°48' W 122°18'0 0.0
2017-May-28 00:30N 37°48' W 122°18'0 0.9
2017-May-28 00:00N 37°48' W 122°17'2 3.7
2017-May-27 23:30N 37°48' W 122°20'4 8.4
2017-May-27 23:00N 37°49' W 122°25'611.9
2017-May-27 22:30N 37°48' W 122°32'612.9
2017-May-27 22:00N 37°46' W 122°40'510.7
2017-May-27 21:30N 37°47' W 122°47'611.1
2017-May-27 21:00N 37°50' W 122°53'611.3
2017-May-27 20:30N 37°52' W 122°59'611.0
2017-May-27 20:00N 37°55' W 123°05'510.9
2017-May-27 19:30N 37°58' W 123°11'611.2
2017-May-27 19:00N 38°02' W 123°16'611.1
2017-May-27 18:30N 38°06' W 123°21'611.4
2017-May-27 18:00N 38°10' W 123°25'611.2
2017-May-27 17:30N 38°15' W 123°30'611.4
2017-May-27 17:00N 38°19' W 123°35'4 7.1
2017-May-27 16:30N 38°22' W 123°37'612.2
2017-May-27 16:00N 38°27' W 123°42'713.3
2017-May-27 15:30N 38°32' W 123°47'713.2
2017-May-27 15:00N 38°37' W 123°53'1312.8
2017-May-27 13:58N 38°47' W 124°03'612.7
2017-May-27 13:30N 38°53' W 124°07'25613.4
2017-May-26 18:26N 43°06' W 124°59'613.5
2017-May-26 18:00N 43°11' W 124°60'1113.6
2017-May-26 17:11N 43°23' W 125°00'313.7
2017-May-26 16:59N 43°25' W 125°00'1113.9
2017-May-26 16:13N 43°36' W 125°01'313.9
2017-May-26 16:00N 43°39' W 125°01'713.6
2017-May-26 15:30N 43°46' W 125°02'713.7
2017-May-26 15:00N 43°52' W 125°02'1413.6
2017-May-26 14:00N 44°06' W 125°04'713.6
2017-May-26 13:29N 44°13' W 125°04'713.6
2017-May-26 13:00N 44°19' W 125°05'713.5
2017-May-26 12:30N 44°26' W 125°06'713.3
2017-May-26 12:00N 44°33' W 125°07'713.5
2017-May-26 11:30N 44°40' W 125°07'713.5
2017-May-26 11:00N 44°46' W 125°07'713.7
2017-May-26 10:30N 44°53' W 125°07'713.8
2017-May-26 10:00N 45°00' W 125°08'713.4
2017-May-26 09:30N 45°07' W 125°09'713.6
2017-May-26 09:00N 45°13' W 125°10'714.1
2017-May-26 08:30N 45°20' W 125°11'713.9
2017-May-26 08:00N 45°27' W 125°11'713.3
2017-May-26 07:30N 45°34' W 125°12'713.6
2017-May-26 07:00N 45°41' W 125°12'713.3
2017-May-26 06:30N 45°47' W 125°13'713.5
2017-May-26 06:00N 45°54' W 125°14'713.4
2017-May-26 05:30N 46°01' W 125°14'713.7
2017-May-26 05:00N 46°08' W 125°15'713.5
2017-May-26 04:30N 46°15' W 125°15'713.7
2017-May-26 04:01N 46°21' W 125°16'713.6
2017-May-26 03:30N 46°28' W 125°16'713.5
2017-May-26 03:00N 46°35' W 125°17'713.4
2017-May-26 02:29N 46°42' W 125°18'613.4
2017-May-26 02:00N 46°48' W 125°18'713.3
2017-May-26 01:30N 46°55' W 125°19'713.5
2017-May-26 01:01N 47°02' W 125°19'713.4
2017-May-26 00:31N 47°08' W 125°20'713.7
2017-May-26 00:01N 47°15' W 125°21'1013.6
2017-May-25 23:18N 47°25' W 125°22'413.5
2017-May-25 23:00N 47°29' W 125°22'713.7
2017-May-25 22:30N 47°35' W 125°23'713.7
2017-May-25 22:00N 47°42' W 125°24'813.4
2017-May-25 21:25N 47°50' W 125°24'713.5
2017-May-25 20:56N 47°57' W 125°24'613.2
2017-May-25 20:30N 48°02' W 125°21'713.6
2017-May-25 20:00N 48°08' W 125°17'713.6
2017-May-25 19:29N 48°15' W 125°13'713.8
2017-May-25 19:00N 48°21' W 125°10'713.6
2017-May-25 18:30N 48°27' W 125°05'612.4
2017-May-25 18:00N 48°31' W 124°58'714.2
2017-May-25 17:30N 48°31' W 124°47'714.9
2017-May-25 17:00N 48°29' W 124°36'815.3
2017-May-25 16:30N 48°26' W 124°26'816.1
2017-May-25 16:00N 48°23' W 124°14'816.4
2017-May-25 15:30N 48°19' W 124°03'816.0
2017-May-25 15:00N 48°17' W 123°51'917.3
2017-May-25 14:30N 48°16' W 123°39'1312.7
2017-May-25 13:30N 48°23' W 123°22'815.4
2017-May-25 13:00N 48°27' W 123°12'1122.6
2017-May-25 12:31N 48°38' W 123°14'917.4
2017-May-25 12:01N 48°45' W 123°06'714.1
2017-May-25 11:30N 48°52' W 123°05'1121.7
2017-May-25 11:01N 48°59' W 123°17'815.3
2017-May-25 10:31N 49°07' W 123°21'4 7.7
2017-May-25 10:00N 49°07' W 123°15'612.5
2017-May-25 09:30N 49°07' W 123°06'611.7
2017-May-25 09:00N 49°09' W 122°58'3 5.2
2017-May-25 08:30N 49°11' W 122°55'0 0.0
2017-May-25 07:58N 49°11' W 122°55'0 0.0
2017-May-25 07:28N 49°11' W 122°55'0 0.0
2017-May-25 06:58N 49°11' W 122°55'0 0.0
2017-May-25 06:28N 49°11' W 122°55'0 0.0
2017-May-25 05:58N 49°11' W 122°55'0 0.0
2017-May-25 05:28N 49°11' W 122°55'0 0.0
2017-May-25 04:58N 49°11' W 122°55'0 0.0
2017-May-25 04:28N 49°11' W 122°55'0 0.0
2017-May-25 03:58N 49°11' W 122°55'0 0.0
2017-May-25 03:28N 49°11' W 122°55'0 0.0
2017-May-25 02:58N 49°11' W 122°55'0 0.1
2017-May-25 02:25N 49°11' W 122°55'0 0.1
2017-May-25 01:55N 49°11' W 122°55'0 0.0
2017-May-25 01:25N 49°11' W 122°55'0 0.0
2017-May-25 00:55N 49°11' W 122°55'0 0.0
2017-May-25 00:25N 49°11' W 122°55'0 0.0
2017-May-24 23:55N 49°11' W 122°55'0 0.0
2017-May-24 23:28N 49°11' W 122°55'0 0.0
2017-May-24 22:58N 49°11' W 122°55'0 0.0
2017-May-24 22:30N 49°11' W 122°55'2 3.2
2017-May-24 22:00N 49°10' W 122°56'4 8.8
2017-May-24 21:30N 49°09' W 123°03'5 9.9
2017-May-24 21:00N 49°07' W 123°10'610.9
2017-May-24 20:29N 49°06' W 123°18'4 7.3
2017-May-24 20:00N 49°03' W 123°21'4 7.1
2017-May-24 19:30N 49°01' W 123°17'919.0
2017-May-24 19:00N 48°55' W 123°06'917.0
2017-May-24 18:30N 48°46' W 123°02'1019.7
2017-May-24 18:00N 48°42' W 123°15'918.8
2017-May-24 17:31N 48°32' W 123°12'816.6
2017-May-24 17:00N 48°24' W 123°12'714.5
2017-May-24 16:31N 48°22' W 123°22'511.0
2017-May-24 16:00N 48°17' W 123°26'3 5.1
2017-May-24 15:31N 48°14' W 123°27'3 6.4
2017-May-24 15:00N 48°11' W 123°25'4 8.2
2017-May-24 14:30N 48°09' W 123°21'2020.0
2017-May-24 13:30N 48°12' W 122°51'1222.9
2017-May-24 13:00N 48°04' W 122°38'1020.7
2017-May-24 12:30N 47°56' W 122°29'1020.6
2017-May-24 12:00N 47°46' W 122°26'918.0
2017-May-24 11:31N 47°37' W 122°27'815.3
2017-May-24 11:00N 47°29' W 122°24'714.0
2017-May-24 10:31N 47°23' W 122°21'713.7
2017-May-24 10:00N 47°17' W 122°27'2 0.2
2017-May-24 01:34N 47°16' W 122°25'0 0.0
2017-May-23 19:27N 47°16' W 122°25'1 1.3
2017-May-23 19:00N 47°17' W 122°25'3 6.7
2017-May-23 18:30N 47°20' W 122°27'714.0
2017-May-23 18:01N 47°26' W 122°24'1020.3
2017-May-23 17:30N 47°36' W 122°28'918.8
2017-May-23 17:01N 47°46' W 122°27'918.0
2017-May-23 16:31N 47°55' W 122°30'918.5
2017-May-23 16:01N 48°02' W 122°39'917.3
2017-May-23 15:30N 48°09' W 122°45'1019.4
2017-May-23 15:01N 48°12' W 122°59'1019.5
2017-May-23 14:30N 48°11' W 123°13'1111.2
2017-May-23 13:30N 48°12' W 123°30'611.1
2017-May-23 13:00N 48°13' W 123°38'611.9
2017-May-23 12:31N 48°13' W 123°47'611.4
2017-May-23 12:00N 48°14' W 123°56'611.6
2017-May-23 11:30N 48°16' W 124°04'611.9
2017-May-23 11:00N 48°19' W 124°12'612.2
2017-May-23 10:30N 48°21' W 124°20'612.5
2017-May-23 10:00N 48°24' W 124°29'612.6
2017-May-23 09:30N 48°27' W 124°37'612.5
2017-May-23 09:00N 48°28' W 124°46'612.7
2017-May-23 08:30N 48°29' W 124°56'611.3
2017-May-23 08:00N 48°25' W 125°03'612.1
2017-May-23 07:30N 48°20' W 125°06'612.6
2017-May-23 07:00N 48°14' W 125°11'612.6
2017-May-23 06:30N 48°08' W 125°15'612.2
2017-May-23 06:00N 48°03' W 125°19'612.4
2017-May-23 05:30N 47°57' W 125°23'612.2
2017-May-23 05:00N 47°51' W 125°24'612.4
2017-May-23 04:30N 47°45' W 125°24'612.3
2017-May-23 04:01N 47°39' W 125°24'612.3
2017-May-23 03:30N 47°33' W 125°25'612.4
2017-May-23 03:01N 47°27' W 125°25'612.5
2017-May-23 02:30N 47°20' W 125°26'510.9
2017-May-23 02:00N 47°15' W 125°26'1 2.3
2017-May-23 01:30N 47°16' W 125°26'1 2.2
2017-May-23 01:00N 47°17' W 125°26'1 2.1
2017-May-23 00:31N 47°18' W 125°26'1 2.1
2017-May-23 00:00N 47°19' W 125°27'1 1.9
2017-May-22 23:31N 47°20' W 125°27'1 1.7
2017-May-22 23:00N 47°21' W 125°28'1 1.6
2017-May-22 22:30N 47°22' W 125°28'1 1.4
2017-May-22 22:00N 47°22' W 125°28'1 1.4
2017-May-22 21:30N 47°23' W 125°29'1 1.4
2017-May-22 21:00N 47°24' W 125°29'1 1.4
2017-May-22 20:30N 47°24' W 125°29'1 1.5
2017-May-22 20:00N 47°25' W 125°29'1 1.5
2017-May-22 19:29N 47°26' W 125°29'1 1.4
2017-May-22 19:00N 47°27' W 125°29'1 1.4
2017-May-22 18:31N 47°27' W 125°29'1 1.5
2017-May-22 18:00N 47°28' W 125°29'1 1.4
2017-May-22 17:31N 47°27' W 125°28'612.6
2017-May-22 17:00N 47°22' W 125°24'713.4
2017-May-22 16:30N 47°15' W 125°21'713.7
2017-May-22 16:00N 47°09' W 125°20'713.5
2017-May-22 15:31N 47°02' W 125°20'713.2
2017-May-22 15:00N 46°55' W 125°19'1313.2
2017-May-22 14:00N 46°42' W 125°18'713.4
2017-May-22 13:30N 46°35' W 125°17'713.7
2017-May-22 13:00N 46°28' W 125°16'713.6
2017-May-22 12:30N 46°22' W 125°16'713.6
2017-May-22 12:01N 46°15' W 125°15'713.7
2017-May-22 11:31N 46°08' W 125°15'713.6
2017-May-22 11:00N 46°01' W 125°15'713.8
2017-May-22 10:30N 45°54' W 125°14'713.6
2017-May-22 10:01N 45°48' W 125°13'713.7
2017-May-22 09:30N 45°41' W 125°13'713.2
2017-May-22 09:01N 45°34' W 125°12'713.6
2017-May-22 08:30N 45°27' W 125°10'713.3
2017-May-22 08:00N 45°21' W 125°08'612.9
2017-May-22 07:30N 45°15' W 125°07'612.7
2017-May-22 07:00N 45°08' W 125°08'612.6
2017-May-22 06:30N 45°02' W 125°08'612.8
2017-May-22 06:00N 44°56' W 125°09'713.1
2017-May-22 05:30N 44°49' W 125°08'713.0
2017-May-22 04:59N 44°42' W 125°07'612.7
2017-May-22 04:30N 44°36' W 125°07'612.7
2017-May-22 04:01N 44°30' W 125°06'712.9
2017-May-22 03:30N 44°23' W 125°06'612.6
2017-May-22 03:00N 44°17' W 125°06'612.8
2017-May-22 02:30N 44°11' W 125°05'612.8
2017-May-22 02:00N 44°04' W 125°04'612.6
2017-May-22 01:30N 43°58' W 125°04'612.6
2017-May-22 01:00N 43°52' W 125°03'612.6
2017-May-22 00:30N 43°46' W 125°02'612.5
2017-May-22 00:00N 43°39' W 125°02'612.5
2017-May-21 23:30N 43°33' W 125°01'612.6
2017-May-21 23:00N 43°27' W 125°01'713.1
2017-May-21 22:30N 43°20' W 125°01'713.2
2017-May-21 22:00N 43°14' W 125°00'713.0
2017-May-21 21:30N 43°07' W 124°60'612.9
2017-May-21 21:01N 43°01' W 124°59'712.5
2017-May-21 20:29N 42°54' W 124°59'612.3
2017-May-21 20:00N 42°48' W 124°58'612.2
2017-May-21 19:29N 42°42' W 124°57'611.7
2017-May-21 19:00N 42°36' W 124°57'611.7
2017-May-21 18:30N 42°31' W 124°57'16511.7
2017-May-21 04:21N 39°46' W 125°21'512.1
2017-May-21 03:54N 39°42' W 125°24'512.0
2017-May-21 03:30N 39°37' W 125°26'1012.3
2017-May-21 02:40N 39°27' W 125°30'213.3
2017-May-21 02:30N 39°25' W 125°30'2713.0
2017-May-21 00:25N 38°58' W 125°29'513.1
2017-May-21 00:00N 38°53' W 125°26'713.4
2017-May-20 23:29N 38°48' W 125°21'713.5
2017-May-20 23:00N 38°43' W 125°15'612.8
2017-May-20 22:30N 38°38' W 125°10'713.0
2017-May-20 22:00N 38°33' W 125°04'713.3
2017-May-20 21:29N 38°28' W 124°58'1213.2
2017-May-20 20:35N 38°20' W 124°47'213.1
2017-May-20 20:26N 38°19' W 124°45'613.9
2017-May-20 20:01N 38°18' W 124°38'714.4
2017-May-20 19:31N 38°17' W 124°29'714.5
2017-May-20 19:01N 38°16' W 124°19'714.6
2017-May-20 18:31N 38°16' W 124°10'714.5
2017-May-20 18:01N 38°16' W 124°01'714.5
2017-May-20 17:31N 38°16' W 123°52'714.7
2017-May-20 17:01N 38°15' W 123°42'714.5
2017-May-20 16:31N 38°14' W 123°33'714.6
2017-May-20 16:00N 38°12' W 123°24'714.3
2017-May-20 15:31N 38°07' W 123°17'714.8
2017-May-20 15:01N 38°01' W 123°12'1514.7
2017-May-20 14:01N 37°53' W 122°56'714.7
2017-May-20 13:31N 37°49' W 122°48'714.0
2017-May-20 13:00N 37°44' W 122°42'5 9.3
2017-May-20 12:30N 37°47' W 122°36'612.5
2017-May-20 12:00N 37°49' W 122°29'4 8.7
2017-May-20 11:30N 37°49' W 122°24'4 7.5
2017-May-20 11:00N 37°48' W 122°19'1 2.8
2017-May-20 10:30N 37°48' W 122°17'1 2.5
2017-May-20 10:00N 37°48' W 122°19'0 0.0
2017-May-20 09:29N 37°48' W 122°19'0 0.0
2017-May-20 08:59N 37°48' W 122°19'0 0.0
2017-May-20 08:29N 37°48' W 122°19'0 0.0
2017-May-20 07:59N 37°48' W 122°19'0 0.0
2017-May-20 07:29N 37°48' W 122°19'0 0.0
2017-May-20 06:59N 37°48' W 122°19'0 0.0
2017-May-20 06:29N 37°48' W 122°19'0 0.0
2017-May-20 05:59N 37°48' W 122°19'0 0.0
2017-May-20 05:29N 37°48' W 122°19'0 0.0
2017-May-20 04:59N 37°48' W 122°19'0 0.0
2017-May-20 04:29N 37°48' W 122°19'0 0.0
2017-May-20 03:59N 37°48' W 122°19'0 0.0
2017-May-20 03:29N 37°48' W 122°19'0 0.0
2017-May-20 02:59N 37°48' W 122°19'0 0.0
2017-May-20 02:29N 37°48' W 122°19'0 0.0
2017-May-20 01:59N 37°48' W 122°19'0 0.0
2017-May-20 01:29N 37°48' W 122°19'  
Track history (hours):
 
Tides and Currents Weather Stations Pressure Air Temp Water Temp Dewpoint Dewpoint Depression Visibility Wind Speed Wind Dir Waves Ship Positions

Nyk Deneb

Last reported at 2017-May-30 01:27 UTC. Time now 2017-May-30 01:33 UTC.
Position N 34°17' W 120°21'.

Length 294 m; draft 10 m.

Type: Ship (hazmat cat B). MMSI: 355717000.

Date/timePositionNaut miles runAvg speedWind from/ knotsBaromVisibWave heightAir tempDewpointWater temp
2017-May-30 01:27N 34°17' W 120°21'511.2
2017-May-30 00:59N 34°18' W 120°27'611.5
2017-May-30 00:29N 34°20' W 120°33'511.2
2017-May-30 00:00N 34°22' W 120°40'611.6
2017-May-29 23:30N 34°23' W 120°46'611.2
2017-May-29 23:01N 34°24' W 120°53'510.5
2017-May-29 22:30N 34°26' W 120°59'611.2
2017-May-29 22:00N 34°31' W 121°03'611.4
2017-May-29 21:30N 34°35' W 121°07'5 9.1
2017-May-29 21:00N 34°39' W 121°10'1 1.5
2017-May-29 20:30N 34°40' W 121°10'1 1.5
2017-May-29 20:00N 34°41' W 121°10'1 1.5
2017-May-29 19:31N 34°41' W 121°10'1 1.7
2017-May-29 19:00N 34°42' W 121°11'1 1.7
2017-May-29 18:30N 34°43' W 121°11'1 1.8
2017-May-29 18:00N 34°44' W 121°11'1 2.6
2017-May-29 17:30N 34°45' W 121°10'612.3
2017-May-29 17:00N 34°51' W 121°14'713.6
2017-May-29 16:30N 34°56' W 121°18'713.6
2017-May-29 16:00N 35°02' W 121°22'713.4
2017-May-29 15:30N 35°08' W 121°26'713.4
2017-May-29 15:00N 35°14' W 121°30'713.2
2017-May-29 14:30N 35°20' W 121°33'1413.6
2017-May-29 13:30N 35°32' W 121°41'713.4
2017-May-29 13:00N 35°38' W 121°45'713.8
2017-May-29 12:31N 35°44' W 121°50'713.8
2017-May-29 12:00N 35°50' W 121°54'713.2
2017-May-29 11:30N 35°56' W 121°57'713.3
2017-May-29 11:00N 36°02' W 122°01'713.2
2017-May-29 10:30N 36°07' W 122°05'612.8
2017-May-29 10:00N 36°13' W 122°09'612.6
2017-May-29 09:30N 36°19' W 122°13'612.7
2017-May-29 09:00N 36°24' W 122°17'612.6
2017-May-29 08:30N 36°30' W 122°20'612.0
2017-May-29 08:00N 36°35' W 122°24'612.3
2017-May-29 07:30N 36°40' W 122°28'612.6
2017-May-29 07:00N 36°46' W 122°31'713.0
2017-May-29 06:29N 36°52' W 122°35'613.0
2017-May-29 06:00N 36°57' W 122°39'612.4
2017-May-29 05:30N 37°03' W 122°42'612.4
2017-May-29 05:00N 37°09' W 122°44'713.0
2017-May-29 04:30N 37°15' W 122°44'713.1
2017-May-29 04:00N 37°22' W 122°44'713.2
2017-May-29 03:30N 37°29' W 122°43'713.4
2017-May-29 03:00N 37°35' W 122°43'612.8
2017-May-29 02:30N 37°42' W 122°42'611.1
2017-May-29 02:00N 37°46' W 122°37'918.6
2017-May-29 01:30N 37°50' W 122°27'612.0
2017-May-29 01:00N 37°48' W 122°20'1 1.9
2017-May-29 00:30N 37°48' W 122°19'0 0.0
2017-May-29 00:00N 37°48' W 122°19'0 0.0
2017-May-28 23:30N 37°48' W 122°19'0 0.0
2017-May-28 23:00N 37°48' W 122°19'0 0.0
2017-May-28 22:30N 37°48' W 122°19'0 0.0
2017-May-28 22:00N 37°48' W 122°19'0 0.1
2017-May-28 21:30N 37°48' W 122°19'0 0.1
2017-May-28 21:00N 37°48' W 122°19'0 0.1
2017-May-28 20:30N 37°48' W 122°19'0 0.0
2017-May-28 20:00N 37°48' W 122°19'0 0.0
2017-May-28 19:30N 37°48' W 122°19'0 0.0
2017-May-28 19:00N 37°48' W 122°19'0 0.0
2017-May-28 18:30N 37°48' W 122°19'0 0.1
2017-May-28 18:00N 37°48' W 122°19'0 0.0
2017-May-28 17:30N 37°48' W 122°19'0 0.0
2017-May-28 17:00N 37°48' W 122°19'0 0.0
2017-May-28 16:30N 37°48' W 122°19'0 0.0
2017-May-28 16:00N 37°48' W 122°19'0 0.0
2017-May-28 15:30N 37°48' W 122°19'0 0.0
2017-May-28 15:00N 37°48' W 122°19'0 0.0
2017-May-28 14:00N 37°48' W 122°19'0 0.0
2017-May-28 13:30N 37°48' W 122°19'0 0.0
2017-May-28 13:00N 37°48' W 122°19'0 0.0
2017-May-28 12:30N 37°48' W 122°19'0 0.0
2017-May-28 12:00N 37°48' W 122°19'0 0.0
2017-May-28 11:30N 37°48' W 122°19'0 0.0
2017-May-28 11:00N 37°48' W 122°19'0 0.0
2017-May-28 10:30N 37°48' W 122°19'0 0.0
2017-May-28 10:00N 37°48' W 122°19'0 0.0
2017-May-28 09:30N 37°48' W 122°19'0 0.0
2017-May-28 09:00N 37°48' W 122°19'0 0.0
2017-May-28 08:30N 37°48' W 122°19'0 0.0
2017-May-28 08:00N 37°48' W 122°19'0 0.0
2017-May-28 07:30N 37°48' W 122°19'0 0.0
2017-May-28 07:00N 37°48' W 122°19'0 0.0
2017-May-28 06:30N 37°48' W 122°19'0 0.0
2017-May-28 06:00N 37°48' W 122°19'0 0.0
2017-May-28 05:30N 37°48' W 122°19'0 0.0
2017-May-28 05:00N 37°48' W 122°19'0 0.0
2017-May-28 04:30N 37°48' W 122°19'0 0.0
2017-May-28 04:00N 37°48' W 122°19'0 0.0
2017-May-28 03:30N 37°48' W 122°19'0 0.0
2017-May-28 03:00N 37°48' W 122°19'0 0.0
2017-May-28 02:30N 37°48' W 122°19'0 0.0
2017-May-28 02:00N 37°48' W 122°19'1 1.2
2017-May-28 01:30N 37°48' W 122°18'0 0.3
2017-May-28 01:00N 37°48' W 122°18'0 0.0
2017-May-28 00:30N 37°48' W 122°18'0 0.9
2017-May-28 00:00N 37°48' W 122°17'2 3.7
2017-May-27 23:30N 37°48' W 122°20'4 8.4
2017-May-27 23:00N 37°49' W 122°25'611.9
2017-May-27 22:30N 37°48' W 122°32'612.9
2017-May-27 22:00N 37°46' W 122°40'510.7
2017-May-27 21:30N 37°47' W 122°47'611.1
2017-May-27 21:00N 37°50' W 122°53'611.3
2017-May-27 20:30N 37°52' W 122°59'611.0
2017-May-27 20:00N 37°55' W 123°05'510.9
2017-May-27 19:30N 37°58' W 123°11'611.2
2017-May-27 19:00N 38°02' W 123°16'611.1
2017-May-27 18:30N 38°06' W 123°21'611.4
2017-May-27 18:00N 38°10' W 123°25'611.2
2017-May-27 17:30N 38°15' W 123°30'611.4
2017-May-27 17:00N 38°19' W 123°35'4 7.1
2017-May-27 16:30N 38°22' W 123°37'612.2
2017-May-27 16:00N 38°27' W 123°42'713.3
2017-May-27 15:30N 38°32' W 123°47'713.2
2017-May-27 15:00N 38°37' W 123°53'1312.8
2017-May-27 13:58N 38°47' W 124°03'612.7
2017-May-27 13:30N 38°53' W 124°07'25613.4
2017-May-26 18:26N 43°06' W 124°59'613.5
2017-May-26 18:00N 43°11' W 124°60'1113.6
2017-May-26 17:11N 43°23' W 125°00'313.7
2017-May-26 16:59N 43°25' W 125°00'1113.9
2017-May-26 16:13N 43°36' W 125°01'313.9
2017-May-26 16:00N 43°39' W 125°01'713.6
2017-May-26 15:30N 43°46' W 125°02'713.7
2017-May-26 15:00N 43°52' W 125°02'1413.6
2017-May-26 14:00N 44°06' W 125°04'713.6
2017-May-26 13:29N 44°13' W 125°04'713.6
2017-May-26 13:00N 44°19' W 125°05'713.5
2017-May-26 12:30N 44°26' W 125°06'713.3
2017-May-26 12:00N 44°33' W 125°07'713.5
2017-May-26 11:30N 44°40' W 125°07'713.5
2017-May-26 11:00N 44°46' W 125°07'713.7
2017-May-26 10:30N 44°53' W 125°07'713.8
2017-May-26 10:00N 45°00' W 125°08'713.4
2017-May-26 09:30N 45°07' W 125°09'713.6
2017-May-26 09:00N 45°13' W 125°10'714.1
2017-May-26 08:30N 45°20' W 125°11'713.9
2017-May-26 08:00N 45°27' W 125°11'713.3
2017-May-26 07:30N 45°34' W 125°12'713.6
2017-May-26 07:00N 45°41' W 125°12'713.3
2017-May-26 06:30N 45°47' W 125°13'713.5
2017-May-26 06:00N 45°54' W 125°14'713.4
2017-May-26 05:30N 46°01' W 125°14'713.7
2017-May-26 05:00N 46°08' W 125°15'713.5
2017-May-26 04:30N 46°15' W 125°15'713.7
2017-May-26 04:01N 46°21' W 125°16'713.6
2017-May-26 03:30N 46°28' W 125°16'713.5
2017-May-26 03:00N 46°35' W 125°17'713.4
2017-May-26 02:29N 46°42' W 125°18'613.4
2017-May-26 02:00N 46°48' W 125°18'713.3
2017-May-26 01:30N 46°55' W 125°19'713.5
2017-May-26 01:01N 47°02' W 125°19'713.4
2017-May-26 00:31N 47°08' W 125°20'713.7
2017-May-26 00:01N 47°15' W 125°21'1013.6
2017-May-25 23:18N 47°25' W 125°22'413.5
2017-May-25 23:00N 47°29' W 125°22'713.7
2017-May-25 22:30N 47°35' W 125°23'713.7
2017-May-25 22:00N 47°42' W 125°24'813.4
2017-May-25 21:25N 47°50' W 125°24'713.5
2017-May-25 20:56N 47°57' W 125°24'613.2
2017-May-25 20:30N 48°02' W 125°21'713.6
2017-May-25 20:00N 48°08' W 125°17'713.6
2017-May-25 19:29N 48°15' W 125°13'713.8
2017-May-25 19:00N 48°21' W 125°10'713.6
2017-May-25 18:30N 48°27' W 125°05'612.4
2017-May-25 18:00N 48°31' W 124°58'714.2
2017-May-25 17:30N 48°31' W 124°47'714.9
2017-May-25 17:00N 48°29' W 124°36'815.3
2017-May-25 16:30N 48°26' W 124°26'816.1
2017-May-25 16:00N 48°23' W 124°14'816.4
2017-May-25 15:30N 48°19' W 124°03'816.0
2017-May-25 15:00N 48°17' W 123°51'917.3
2017-May-25 14:30N 48°16' W 123°39'1312.7
2017-May-25 13:30N 48°23' W 123°22'815.4
2017-May-25 13:00N 48°27' W 123°12'1122.6
2017-May-25 12:31N 48°38' W 123°14'917.4
2017-May-25 12:01N 48°45' W 123°06'714.1
2017-May-25 11:30N 48°52' W 123°05'1121.7
2017-May-25 11:01N 48°59' W 123°17'815.3
2017-May-25 10:31N 49°07' W 123°21'4 7.7
2017-May-25 10:00N 49°07' W 123°15'612.5
2017-May-25 09:30N 49°07' W 123°06'611.7
2017-May-25 09:00N 49°09' W 122°58'3 5.2
2017-May-25 08:30N 49°11' W 122°55'0 0.0
2017-May-25 07:58N 49°11' W 122°55'0 0.0
2017-May-25 07:28N 49°11' W 122°55'0 0.0
2017-May-25 06:58N 49°11' W 122°55'0 0.0
2017-May-25 06:28N 49°11' W 122°55'0 0.0
2017-May-25 05:58N 49°11' W 122°55'0 0.0
2017-May-25 05:28N 49°11' W 122°55'0 0.0
2017-May-25 04:58N 49°11' W 122°55'0 0.0
2017-May-25 04:28N 49°11' W 122°55'0 0.0
2017-May-25 03:58N 49°11' W 122°55'0 0.0
2017-May-25 03:28N 49°11' W 122°55'0 0.0
2017-May-25 02:58N 49°11' W 122°55'0 0.1
2017-May-25 02:25N 49°11' W 122°55'0 0.1
2017-May-25 01:55N 49°11' W 122°55'0 0.0
2017-May-25 01:25N 49°11' W 122°55'0 0.0
2017-May-25 00:55N 49°11' W 122°55'0 0.0
2017-May-25 00:25N 49°11' W 122°55'0 0.0
2017-May-24 23:55N 49°11' W 122°55'0 0.0
2017-May-24 23:28N 49°11' W 122°55'0 0.0
2017-May-24 22:58N 49°11' W 122°55'0 0.0
2017-May-24 22:30N 49°11' W 122°55'2 3.2
2017-May-24 22:00N 49°10' W 122°56'4 8.8
2017-May-24 21:30N 49°09' W 123°03'5 9.9
2017-May-24 21:00N 49°07' W 123°10'610.9
2017-May-24 20:29N 49°06' W 123°18'4 7.3
2017-May-24 20:00N 49°03' W 123°21'4 7.1
2017-May-24 19:30N 49°01' W 123°17'919.0
2017-May-24 19:00N 48°55' W 123°06'917.0
2017-May-24 18:30N 48°46' W 123°02'1019.7
2017-May-24 18:00N 48°42' W 123°15'918.8
2017-May-24 17:31N 48°32' W 123°12'816.6
2017-May-24 17:00N 48°24' W 123°12'714.5
2017-May-24 16:31N 48°22' W 123°22'511.0
2017-May-24 16:00N 48°17' W 123°26'3 5.1
2017-May-24 15:31N 48°14' W 123°27'3 6.4
2017-May-24 15:00N 48°11' W 123°25'4 8.2
2017-May-24 14:30N 48°09' W 123°21'2020.0
2017-May-24 13:30N 48°12' W 122°51'1222.9
2017-May-24 13:00N 48°04' W 122°38'1020.7
2017-May-24 12:30N 47°56' W 122°29'1020.6
2017-May-24 12:00N 47°46' W 122°26'918.0
2017-May-24 11:31N 47°37' W 122°27'815.3
2017-May-24 11:00N 47°29' W 122°24'714.0
2017-May-24 10:31N 47°23' W 122°21'713.7
2017-May-24 10:00N 47°17' W 122°27'2 0.2
2017-May-24 01:34N 47°16' W 122°25'0 0.0
2017-May-23 19:27N 47°16' W 122°25'1 1.3
2017-May-23 19:00N 47°17' W 122°25'3 6.7
2017-May-23 18:30N 47°20' W 122°27'714.0
2017-May-23 18:01N 47°26' W 122°24'1020.3
2017-May-23 17:30N 47°36' W 122°28'918.8
2017-May-23 17:01N 47°46' W 122°27'918.0
2017-May-23 16:31N 47°55' W 122°30'918.5
2017-May-23 16:01N 48°02' W 122°39'917.3
2017-May-23 15:30N 48°09' W 122°45'1019.4
2017-May-23 15:01N 48°12' W 122°59'1019.5
2017-May-23 14:30N 48°11' W 123°13'1111.2
2017-May-23 13:30N 48°12' W 123°30'611.1
2017-May-23 13:00N 48°13' W 123°38'611.9
2017-May-23 12:31N 48°13' W 123°47'611.4
2017-May-23 12:00N 48°14' W 123°56'611.6
2017-May-23 11:30N 48°16' W 124°04'611.9
2017-May-23 11:00N 48°19' W 124°12'612.2
2017-May-23 10:30N 48°21' W 124°20'612.5
2017-May-23 10:00N 48°24' W 124°29'612.6
2017-May-23 09:30N 48°27' W 124°37'612.5
2017-May-23 09:00N 48°28' W 124°46'612.7
2017-May-23 08:30N 48°29' W 124°56'611.3
2017-May-23 08:00N 48°25' W 125°03'612.1
2017-May-23 07:30N 48°20' W 125°06'612.6
2017-May-23 07:00N 48°14' W 125°11'612.6
2017-May-23 06:30N 48°08' W 125°15'612.2
2017-May-23 06:00N 48°03' W 125°19'612.4
2017-May-23 05:30N 47°57' W 125°23'612.2
2017-May-23 05:00N 47°51' W 125°24'612.4
2017-May-23 04:30N 47°45' W 125°24'612.3
2017-May-23 04:01N 47°39' W 125°24'612.3
2017-May-23 03:30N 47°33' W 125°25'612.4
2017-May-23 03:01N 47°27' W 125°25'612.5
2017-May-23 02:30N 47°20' W 125°26'510.9
2017-May-23 02:00N 47°15' W 125°26'1 2.3
2017-May-23 01:30N 47°16' W 125°26'1 2.2
2017-May-23 01:00N 47°17' W 125°26'1 2.1
2017-May-23 00:31N 47°18' W 125°26'1 2.1
2017-May-23 00:00N 47°19' W 125°27'1 1.9
2017-May-22 23:31N 47°20' W 125°27'1 1.7
2017-May-22 23:00N 47°21' W 125°28'1 1.6
2017-May-22 22:30N 47°22' W 125°28'1 1.4
2017-May-22 22:00N 47°22' W 125°28'1 1.4
2017-May-22 21:30N 47°23' W 125°29'1 1.4
2017-May-22 21:00N 47°24' W 125°29'1 1.4
2017-May-22 20:30N 47°24' W 125°29'1 1.5
2017-May-22 20:00N 47°25' W 125°29'1 1.5
2017-May-22 19:29N 47°26' W 125°29'1 1.4
2017-May-22 19:00N 47°27' W 125°29'1 1.4
2017-May-22 18:31N 47°27' W 125°29'1 1.5
2017-May-22 18:00N 47°28' W 125°29'1 1.4
2017-May-22 17:31N 47°27' W 125°28'612.6
2017-May-22 17:00N 47°22' W 125°24'713.4
2017-May-22 16:30N 47°15' W 125°21'713.7
2017-May-22 16:00N 47°09' W 125°20'713.5
2017-May-22 15:31N 47°02' W 125°20'713.2
2017-May-22 15:00N 46°55' W 125°19'1313.2
2017-May-22 14:00N 46°42' W 125°18'713.4
2017-May-22 13:30N 46°35' W 125°17'713.7
2017-May-22 13:00N 46°28' W 125°16'713.6
2017-May-22 12:30N 46°22' W 125°16'713.6
2017-May-22 12:01N 46°15' W 125°15'713.7
2017-May-22 11:31N 46°08' W 125°15'713.6
2017-May-22 11:00N 46°01' W 125°15'713.8
2017-May-22 10:30N 45°54' W 125°14'713.6
2017-May-22 10:01N 45°48' W 125°13'713.7
2017-May-22 09:30N 45°41' W 125°13'713.2
2017-May-22 09:01N 45°34' W 125°12'713.6
2017-May-22 08:30N 45°27' W 125°10'713.3
2017-May-22 08:00N 45°21' W 125°08'612.9
2017-May-22 07:30N 45°15' W 125°07'612.7
2017-May-22 07:00N 45°08' W 125°08'612.6
2017-May-22 06:30N 45°02' W 125°08'612.8
2017-May-22 06:00N 44°56' W 125°09'713.1
2017-May-22 05:30N 44°49' W 125°08'713.0
2017-May-22 04:59N 44°42' W 125°07'612.7
2017-May-22 04:30N 44°36' W 125°07'612.7
2017-May-22 04:01N 44°30' W 125°06'712.9
2017-May-22 03:30N 44°23' W 125°06'612.6
2017-May-22 03:00N 44°17' W 125°06'612.8
2017-May-22 02:30N 44°11' W 125°05'612.8
2017-May-22 02:00N 44°04' W 125°04'612.6
2017-May-22 01:30N 43°58' W 125°04'612.6
2017-May-22 01:00N 43°52' W 125°03'612.6
2017-May-22 00:30N 43°46' W 125°02'612.5
2017-May-22 00:00N 43°39' W 125°02'612.5
2017-May-21 23:30N 43°33' W 125°01'612.6
2017-May-21 23:00N 43°27' W 125°01'713.1
2017-May-21 22:30N 43°20' W 125°01'713.2
2017-May-21 22:00N 43°14' W 125°00'713.0
2017-May-21 21:30N 43°07' W 124°60'612.9
2017-May-21 21:01N 43°01' W 124°59'712.5
2017-May-21 20:29N 42°54' W 124°59'612.3
2017-May-21 20:00N 42°48' W 124°58'612.2
2017-May-21 19:29N 42°42' W 124°57'611.7
2017-May-21 19:00N 42°36' W 124°57'611.7
2017-May-21 18:30N 42°31' W 124°57'16511.7
2017-May-21 04:21N 39°46' W 125°21'512.1
2017-May-21 03:54N 39°42' W 125°24'512.0
2017-May-21 03:30N 39°37' W 125°26'1012.3
2017-May-21 02:40N 39°27' W 125°30'213.3
2017-May-21 02:30N 39°25' W 125°30'2713.0
2017-May-21 00:25N 38°58' W 125°29'513.1
2017-May-21 00:00N 38°53' W 125°26'713.4
2017-May-20 23:29N 38°48' W 125°21'713.5
2017-May-20 23:00N 38°43' W 125°15'612.8
2017-May-20 22:30N 38°38' W 125°10'713.0
2017-May-20 22:00N 38°33' W 125°04'713.3
2017-May-20 21:29N 38°28' W 124°58'1213.2
2017-May-20 20:35N 38°20' W 124°47'213.1
2017-May-20 20:26N 38°19' W 124°45'613.9
2017-May-20 20:01N 38°18' W 124°38'714.4
2017-May-20 19:31N 38°17' W 124°29'714.5
2017-May-20 19:01N 38°16' W 124°19'714.6
2017-May-20 18:31N 38°16' W 124°10'714.5
2017-May-20 18:01N 38°16' W 124°01'714.5
2017-May-20 17:31N 38°16' W 123°52'714.7
2017-May-20 17:01N 38°15' W 123°42'714.5
2017-May-20 16:31N 38°14' W 123°33'714.6
2017-May-20 16:00N 38°12' W 123°24'714.3
2017-May-20 15:31N 38°07' W 123°17'714.8
2017-May-20 15:01N 38°01' W 123°12'1514.7
2017-May-20 14:01N 37°53' W 122°56'714.7
2017-May-20 13:31N 37°49' W 122°48'714.0
2017-May-20 13:00N 37°44' W 122°42'5 9.3
2017-May-20 12:30N 37°47' W 122°36'612.5
2017-May-20 12:00N 37°49' W 122°29'4 8.7
2017-May-20 11:30N 37°49' W 122°24'4 7.5
2017-May-20 11:00N 37°48' W 122°19'1 2.8
2017-May-20 10:30N 37°48' W 122°17'1 2.5
2017-May-20 10:00N 37°48' W 122°19'0 0.0
2017-May-20 09:29N 37°48' W 122°19'0 0.0
2017-May-20 08:59N 37°48' W 122°19'0 0.0
2017-May-20 08:29N 37°48' W 122°19'0 0.0
2017-May-20 07:59N 37°48' W 122°19'0 0.0
2017-May-20 07:29N 37°48' W 122°19'0 0.0
2017-May-20 06:59N 37°48' W 122°19'0 0.0
2017-May-20 06:29N 37°48' W 122°19'0 0.0
2017-May-20 05:59N 37°48' W 122°19'0 0.0
2017-May-20 05:29N 37°48' W 122°19'0 0.0
2017-May-20 04:59N 37°48' W 122°19'0 0.0
2017-May-20 04:29N 37°48' W 122°19'0 0.0
2017-May-20 03:59N 37°48' W 122°19'0 0.0
2017-May-20 03:29N 37°48' W 122°19'0 0.0
2017-May-20 02:59N 37°48' W 122°19'0 0.0
2017-May-20 02:29N 37°48' W 122°19'0 0.0
2017-May-20 01:59N 37°48' W 122°19'0 0.0
2017-May-20 01:29N 37°48' W 122°19'  

Dump ship's entire track history